富山空港

2024/04/21

定点 富山空港 2024/4/21 sun

家事を午後に回して、早目に河原

RJNT 202300Z VRB02KT 8000 FEW008 SCT090 BKN100 14/12 Q1014

20240421_rjnt_00ja13fj

昨晩、お泊りだった機体は、朝食中

20240421_rjnt_01ja12aj

こちらも早くも準備中。休日もフライトご苦労様です。

RJNT 210000Z 28006KT 250V320 9999 FEW008 SCT080 BKN090 15/11 Q1014

20240421_rjnt_02ja12aj

JA12AJ↑ C208B ASK

20240421_rjnt_03ja13fj

今日も青森行

20240421_rjnt_04ja13fj

FDA7901 RJNT-RJSA JA13FJ ERJ-175STD

20240421_rjnt_05hl8329

まだ黄砂の影響が残っています。

20240421_rjnt_06hl8329
20240421_rjnt_07hl8329

TWB9239 RKSI-RJNT HL8329 B737-8KN

RJNT 210100Z 27005KT 240V320 9999 FEW010 SCT080 BKN090 17/09 Q1014

20240421_rjnt_08jr1028d

1028D D201 隙間にちょこっと鉄

20240421_rjnt_09ja65an
20240421_rjnt_10ja65an

ANA315 RJTT-RJNT JA65AN B737-881

RJNT 210200Z 35006KT 320V020 9999 FEW020 SCT070 BKN080 16/10 Q1014

20240421_rjnt_11hl8329
20240421_rjnt_12hl8329
20240421_rjnt_13hl8329

TWB9239 RKSI-RJNT HL8329 B737-8KN

20240421_rjnt_14ja173b

JA173B→ BK117C-2 THK 富山県ドクターヘリ

20240421_rjnt_15b18652
20240421_rjnt_16b18652

CAL2170 RCTP-RJNT B-18652 B737-8Q8

20240421_rjnt_17ja65an
20240421_rjnt_18ja65an

ANA316 RJNT-RJTT JA65AN B737-881

RJNT 210300Z 35005KT 310V020 9999 FEW020 SCT070 BKN080 16/09 Q1014

20240421_rjnt_19ja87an
20240421_rjnt_20ja87an

ANA1182 RJCC-RJNT JA87AN B737-8AL

RJNT 210400Z 29003KT 250V360 9999 SCT070 BKN080 BKN090 16/08 Q1014

20240421_rjnt_21ja87an
20240421_rjnt_22ja87an

ANA1181 RJNT-RJCC JA87AN B737-8AL

20240421_rjnt_23b18652
20240421_rjnt_24b18652
20240421_rjnt_25b18652
20240421_rjnt_26b18652

CAL2171 RJCC-RCTP B-18652 B737-8Q8

雨も落ちてきたので、この辺りで離脱。

| | コメント (0)

2024/04/19

定点 富山空港他 2024/4/19 fri

黄砂来襲。朝から晴れているのに白っぽい、もやっとした空模様。

RJNT 190000Z 25003KT 170V300 9999 FEW020 SCT080 15/09 Q1013

20240419_rjnt_00ja11fj

昨日、富山-青森を往復して、お泊り。今日も青森へ飛び立ちます。

20240419_rjnt_01ja11fj

FDA7901 RJNT-RJSA JA11FJ ERJ-175STD

20240419_rjnt_02ja11fj

今は、弘前城のサクラが見ごろだね。

RJNT 190100Z VRB02KT 9999 FEW030 16/07 Q1013

20240419_rjnt_03jr1028d

久しぶりに鉄分補給が仇。JA412N を撮り逃してしまった。

20240419_rjnt_04jr1028d

1028D D202

RJNT 190200Z VRB04KT 9999 FEW030 17/07 Q1012

20240419_rjnt_05ja84an
20240419_rjnt_06ja84an

ANA315 RJTT-RJNT JA84AN B737-881

20240419_rjnt_07ja84an

ANA316 RJNT-RJTT JA84AN B737-881

いやー、読書に熱中してしまい、撮り逃しやわ。

20240419_rjnt_08ja139t

JA139T↓ AW139 富山県警察

RJNT 190300Z VRB02KT 9999 FEW030 18/06 Q1012

20240419_rjnt_09ja70an
20240419_rjnt_10ja70an

ANA1182 RJCC-RJNT JA70AN B737-881

20240419_rjnt_11ja173b

JA173B← BK117C-2 THK 富山県ドクターヘリ

ドクヘリと言えば、沖縄県浦添総合病院の運行会社がヒラタから鹿児島に変わったようです。今度グランニューを見に行こう。

20240419_rjnt_12ja11aj

JA11AJ↑ C208A ASK

20240419_rjnt_13b18661

50分遅れでの到着です。千歳便の後になりました。

20240419_rjnt_14b18661
20240419_rjnt_15b18661

CAL2170 RCTP-RJNT B-18661 B737-8AL

20240419_rjnt_16ja12aj

JA12AJ↓ C208B ASK

RJNT 190400Z 32006KT 230V040 9999 FEW020 SCT050 19/06 Q1012

20240419_rjnt_17ja70an
20240419_rjnt_18ja70an

ANA1181 RJNT-RJCC JA70AN B737-881

20240419_rjnt_19b18661

到着が遅れたので、出発も遅れています。

20240419_rjnt_20hl8241

先に大韓航空さんが到着。しかし大韓は、いつぶりなんだろう?

20240419_rjnt_21hl8241

KAL9715 RKSI-RJNT HL8241 B737-8BK

20240419_rjnt_22hl8241
20240419_rjnt_23hl8241
20240419_rjnt_24b18661

ダイナさんラインナップします。

20240419_rjnt_25hl8241
20240419_rjnt_26b18661

CAL2171 RJNT-RCTP B-18661 B737-8AL

20240419_rjnt_27b18661
20240419_rjnt_28b18661

中華航空は連日飛来があります。

20240419_rjnt_29ja119w

JA119W↑ AW139 富山県消防防災

RJNT 190500Z 24007KT 190V270 9999 FEW020 19/06 Q1011

20240419_rjnt_30ja9678

JA9678↓ AS332L1 AKF

20240419_rjnt_31ja11aj

JA11AJ C208A ASK このPさんは、帰りはいつもIFRで来られます。

20240419_rjnt_32hl8241
20240419_rjnt_33hl8241
20240419_rjnt_34hl8241

KAL9716 RJNT-RKSI HL8241 B737-8BK

河原は、この辺で

09RJNT 190600Z 28005KT 230V010 9999 FEW020 20/04 Q1011

帰りに難破船

20240419_ziwase_50dongyu

油や水の抜き取りは終わった様で、船首が軽くなって、船尾が前より沈んでいます。

20240419_ziwase_51dongyu
20240419_ziwase_52dongyu

作業小屋のプレハブが撤去されていました。あの救命艇が、地元の産廃業者に引き渡され、撤去の模様。

 

| | コメント (0)

2024/04/15

定点 富山空港 2024/4/15 mon

今日も穏やかな暖かい日和。アルペンルートが全通して、いよいよ春山シーズン。なお今日は、「ヘリコプターの日」でもあるそうだ。

RJNT 150100Z 34007KT 320V030 CAVOK 23/12 Q1019

20240415_rjnt_00ja6517

JA6517 AS350B3 AKF

新潟ベースの北陸NNN系取材機。山を見た後に、震災関係取材ですかね。

20240415_rjnt_01ja63nh

JA63NH↓ AS365N2 ANH

そろそろ更新の最古参の機体がやってきました。

RJNT 150200Z 34006KT CAVOK 23/11 Q1018

20240415_rjnt_02ja85an

20240415_rjnt_03ja85an

ANA315 RJTT-RJNT JA85AN B737-881

20240415_rjnt_04ja6517

JA6517↓

20240415_rjnt_05toyama

ターミナル前は観光バスで溢れています。

20240415_rjnt_06toyama

国際線出口には、チューりっふのPR

20240415_rjnt_07ja63nh

JA63NH

20240415_rjnt_08ja85an

同じ青

20240415_rjnt_09ja6517

JA6517

20240415_rjnt_10ja63nh

名古屋へお帰りです。

20240415_rjnt_11ja63nh

JA63NH↑

20240415_rjnt_12ja65an

ダイナさんが進入中で間隔調整

20240415_rjnt_13b18653

ライトブレイク

RJNT 150300Z 01007KT CAVOK 22/11 Q1018

20240415_rjnt_14ja65an

ダウンウインドのダイナさんを横目に離陸です。

20240415_rjnt_15ja65an

ANA316 RJNT-RJTT JA85AN B737-881

20240415_rjnt_16b18653
20240415_rjnt_17b18653

この春シーズン最初のチャーターです。

20240415_rjnt_18b18653

CAL2170 RCTP-RJNT B-18653 B737-8Q8

20240415_rjnt_19b18653

さくらに間に合いました。

20240415_rjnt_20b18653

富山にようこそ

20240415_rjnt_21ja173b

JA173B← BK173C-2 THK 富山県ドクターヘリ 南砺方面へ

20240415_rjnt_22ja173b

JA173B→ 現場到着前にキャンセルされて戻ってきました。

20240415_rjnt_23ja60an

20240415_rjnt_24ja60an

ANA1182 RJCC-RJNT JA60AN B737-881

20240415_rjnt_25ja60an

B3同志は、日常が帰ってきたよいな風景

20240415_rjnt_26ja60an
20240415_rjnt_27toyama

ターミナルの宣伝は砺波チューリップフェア

RJNT 150400Z 34005KT CAVOK 24/10 Q1017

20240415_rjnt_28ja60an
20240415_rjnt_29ja60an

ANA1181 RJNT-RJCC JA60AN B737-881

20240415_rjnt_30ja6517

JA6517↑ 新潟にお帰りの模様

20240415_rjnt_31b18653
20240415_rjnt_32b18653
20240415_rjnt_33b18653

CAL2171 RJNT-RCTP B-18653 B737-8Q8

20240415_rjnt_34b18653

ダイナさんは、明日も来ます。

20240415_rjnt_35ja139t

JA139T↑ AW139 富山県警察

| | コメント (0)

2024/04/14

定点 富山空港 2024/4/14 sun

今日も良いお天気。

RJNT 140000Z 33004KT 280V360 CAVOK 17/09 Q1022

20240414_rjnt_00oelpc

AUA51 LOWW-RJAA OE-LPC B777-2Z0ER

陽射しは強いですが、上空は綺麗に雲を引いています。

20240414_rjnt_01hl8300

RJNT 140100Z VRB02KT CAVOK 20/10 Q1022

20240414_rjnt_02hl8300

今日のお客さん

20240414_rjnt_03hl8300

TWB9239 RKSI-RJNT HL8300 B737-8AL

20240414_rjnt_04hl8300

北風は弱いですが、RNP02でアプローチ

20240414_rjnt_05ja119w

JA119W AW139 富山県消防防災

朝方、高岡方面にフライトして、日向ぼっこ。午後から訓練があった模様。

20240414_rjnt_06ja4004

JA4004↑ C172P

20240414_rjnt_07ja182c

JA182C↑ C182S

20240414_rjnt_08ja82an
20240414_rjnt_09ja82an

ANA315 RJTT-RJNT JA82AN B737-881

20240414_rjnt_10hl8300
20240414_rjnt_11hl8300

TWB9240 RJNT-RKSI HL8300 B737-8AL

次のTwayさんは、17日木曜

RJNT 140200Z VRB02KT CAVOK 21/09 Q1021

20240414_rjnt_12ja82an
20240414_rjnt_13ja82an

ANA316 RJNT-RJTT JA82AN B737-881

RJNT 140300Z 02007KT 350V080 CAVOK 22/10 Q1021

20240414_rjnt_14ja66an
20240414_rjnt_15ja66an
20240414_rjnt_16ja66an

ANA1182 RJCC-RJNT JA66AN B737-881

20240414_rjnt_17ja525a

定期便の後おって、サークリング

20240414_rjnt_18ja525a
20240414_rjnt_19ja525a

JA525A RJOY-RJNT JA525A C525

RJNT 140400Z 36008KT 330V030 CAVOK 22/08 Q1021

20240414_rjnt_20ja66an
20240414_rjnt_21ja66an

ANA1181 RJNT-RJCC JA66AN B737-881

20240414_rjnt_22ja66an
20240414_rjnt_23ja525a
20240414_rjnt_24ja525a

JA525A RJNT-RJOY JA525A C525

この後、防災さんが自隊訓練の模様

 

| | コメント (0)

2024/04/13

定点 富山空港他 2024/4/13 sat

昨日から半島系の春チャーターが始まりました。トップバッターに大韓航空。本体が来るのは、何年ぶりだろう?

RJNT 130100Z VRB05KT CAVOK 18/07 Q1019

20240413_0higashiyatsuo_00hl8371

今日は、アシアナのチャーターでしたが、すっかり忘れていて、桜を見に来てしまいました。でも、ここから桜越にファイナルの機体が見えました。

20240413_0higashiyatsuo_01jr1028

1028D D201 桜は、今が最盛期

20240413_0higashiyatsuo_02jr1028

先日見たハクモクレンは散って、赤木蓮が目立っていました。

20240413_rjnt_03b1372

CHH439 ZBAA-RJAA B-1372 B737-84P

先行するEOKの雲を追って、成田へ

RJNT 130200Z 36006KT 320V040 CAVOK 19/09 Q1018

20240413_rjnt_04ja65an

さて河原に来ると、RNAV02 お天気が良いので、OWARAでもくっきり。

20240413_rjnt_05ja65an

川面も、きらきら綺麗に輝いています。

20240413_rjnt_06ja65an

ANA315 RJTT-RJNT JA65AN B737-881

20240413_rjnt_07ja65an
20240413_rjnt_08hl8371

315の着陸を待ってラインナップ

20240413_rjnt_09hl8371

久しぶりのお見合い

20240413_rjnt_10ja65an
20240413_rjnt_11hl8371

AAR1273 RJNT-RKSI HL8371 A321-251NX

次のアシアナ便は、16日火曜日

RJNT 130300Z 36006KT 320V060 CAVOK 19/08 Q1018

20240413_rjnt_12ja65an
20240413_rjnt_13ja65an

ANA316 RJNT-RJTT JA65AN B737-881

20240413_rjnt_14ja78an

こちらは、タイトなサークリング A席は、楽しかっただろうな。

20240413_rjnt_15ja78an

ショートファイナルで、きっちりアラインして

20240413_rjnt_16ja78an

ANA1182 RJCC-RJNT JA78AN B737-881

20240413_rjnt_17ja78an

RJNT 130400Z 36007KT 330V050 CAVOK 19/08 Q1017

20240413_rjnt_18ja78an

離陸は、上海さん待ち

20240413_rjnt_19b5261

ライトブレイク

20240413_rjnt_20ja78an

ANA1181 RJNT-RJTT JA78AN B737-881

20240413_rjnt_21b5261

こちらもお手本のようなファイナル

20240413_rjnt_22b5261
20240413_rjnt_23b5261

CSH825 ZSPD-RJNT B-5261 B737-76D

20240413_rjnt_24b5261
20240413_rjnt_25b5261
20240413_rjnt_26ja119w

お昼を過ぎて、今日も訓練です。

20240413_rjnt_27ja119w

JA119W↑ AW139 富山県消防防災

お隣石川防災さんの新しい機体が、いよいよ登録されました。

RJNT 130500Z 35009KT CAVOK 20/08 Q1017

20240413_rjnt_28b5261
20240413_rjnt_29b5261

CSH826 RJNT-ZSPD B-5261 B737-76D

20240413_rjnt_30b5261

時間帯を早くしたおかげで、EDCTで待たされることが少なくなりました。

20240413_ziwase_31dongyu

今日は、最後に難破船 DONG YU

20240413_ziwase_32dongyu

「世界で最も美しい湾クラブ」

| | コメント (0)

2024/04/11

定点 富山空港 2024/4/11 thu

一昨日8日は、春の嵐で、一気に冬に戻ったような寒さ。昨日から青空が戻りましたが、北風で肌寒い。桜は満開を過ぎた模様。

RJNT 110100Z 18008KT 130V210 CAVOK 18/05 Q1025

20240411_rjnt_00ja173b

JA173B← BK117C-2 THK 富山県ドクターヘリ

南砺方面は空港上空を通過していきます。

20240411_rjnt_01tsurugi

空港公園のサクラも見ごろ。山は一気に青くなってきた。

20240411_rjnt_02ja86an

RWY20で進入して来ましたが、北風が強いのでサークリング

20240411_rjnt_03ja86an
20240411_rjnt_04ja86an

ANA315 RJTT-RJNT JA86AN B737-881

RJNT 110200Z 36010KT CAVOK 18/06 Q1025

20240411_rjnt_05ja86an

赤木蓮は満開

20240411_rjnt_06ja21dk

おや、お客さん

20240411_rjnt_07ja21dk

JA21DK↓ H135 北海道警察「ぎんれい2号」

20240411_rjnt_08ja6502

JA6502↓ AS350B3 AKF オートロ

20240411_rjnt_09ja21dk

JA21DK↑ 給油をして出発です。耐空明けかな。

20240411_rjnt_10ja86an
20240411_rjnt_11ja86an

ANA316 RJNT-RJTT JA86AN B737-881

RJNT 110300Z 36011KT 9999 FEW030 BKN/// 17/05 Q1024

20240411_rjnt_12ja173b

JA173B← また南砺

20240411_rjnt_13ja81an

千歳便はRNP02

20240411_rjnt_14ja81an
20240411_rjnt_15ja81an
20240411_rjnt_16ja81an

ANA1182 RJCC-RJNT JA81AN B737-881

20240411_rjnt_17ja81an
20240411_rjnt_18ja6512

JA6512↓ AS350B3 AKF

20240411_rjnt_19ja173b

JA173B← 3度目の南砺

RJNT 110400Z 36010KT CAVOK 18/05 Q1024

20240411_rjnt_20ja81an
20240411_rjnt_21ja81an

JA1181 RJNT-RJCC JA81AN B737-881

20240411_rjnt_22ja139t

JA139T↑ AW139 富山県警察

20240411_rjnt_23ja139t

IFR訓練の様で、神通HPを飛び立って

20240411_rjnt_24ja139t

一旦滑走路に着陸。ここからIFRデパーチャー

20240411_rjnt_25ja139t
20240411_rjnt_26ja119w

JA119W↑ AW139 富山県消防防災

20240411_rjnt_27ja119w

つるぎさんが周回している間に出庫して、訓練に出発

20240411_rjnt_28ja6512

JA6512↑ 三連荘のヘリ出発

本日は、ここまで

| | コメント (0)

2024/04/07

定点 伏木・富山空港・東八尾 2024/4/7 sun

穏やかなビューティフル・サンデイ。皆さんお花見に忙しいかな。

RJNT 062300Z VRB02KT CAVOK 15/08 Q1018

今日は、いつもの難破船でなくて、大きな船が来るというので、そこからスタートです。

20240407_0fushiki_00westerdam

庄川右岸に着くと、靄の中に船影が見えます。昨晩境港を出航して朝に到着してます。

20240407_0fushiki_01westerdam

先導は「日本海」

RJNT 070000Z 06003KT 360V130 CAVOK 16/08 Q1018

20240407_0fushiki_02westerdam

艫は、「長田丸」がお供をします。

20240407_0fushiki_03westerdam

オランダ船籍の「Westerdam」8万トンもあるぜよ。

20240407_0fushiki_04westerdam

水鳥さんがトレイル

20240407_0fushiki_05westerdam

小じゃれたファンネル

20240407_0fushiki_06westerdam

会社は、「Holland America Line.」

20240407_0fushiki_07westerdam

定置港は「ROTTERDAM」

20240407_0fushiki_08westerdam

万葉埠頭に接岸します。

20240407_0fushiki_09westerdam

さて、ここから廻頭です。

20240407_0fushiki_10westerdam

自船のスラスターでゆっくり回転します。タグはイザと言う時の安全牌。

20240407_0fushiki_11westerdam

まあ、すごいことですね。

20240407_0fushiki_12westerdam

舫が降ろされ、接岸です。

20240407_0fushiki_13westerdam

本日夕方出航で、次は酒田です。

では、河原に転戦。

RJNT 070100Z VRB02KT CAVOK 19/08 Q1017

20240407_1rjnt_20hl8562

EOK322 RKTU-RJAA HL8562 A320-214

全天は半分くらい雲がかかっていますが、青空は綺麗。

RJNT 070200Z 35005KT 310V030 CAVOK 22/09 Q1017

定期便の到着を待っていると、上空を別府の展示に築城に展開していたブルーインパルス各機が上空通過。空模様が悪いのか、3編隊に別れてのIFRで次々と通過して行きました。

20240407_1rjnt_21ja81an

ここの桜は、もうちょっと

20240407_1rjnt_22ja81an
20240407_1rjnt_23ja81an

ANA315 RJTT-RJNT JA81AN B737-881

20240407_1rjnt_24ja81an
20240407_1rjnt_25ja81an
20240407_1rjnt_26ja81an

ANA316 RJNT-RJTT JA81AN B737-881

RJNT 070300Z 01005KT 310V050 9999 FEW020 BKN/// 21/09 Q1016

20240407_1rjnt_27ja63an
20240407_1rjnt_28ja63an

ANA1182 RJCC-RJNT JA63AN B737-881

RJNT 070400Z 02006KT 340V050 9999 FEW020 SCT/// 21/08 Q1016

20240407_1rjnt_29hl8355

AIH312 RKSI-RJAA HL8355 B737-8CXSF

20240407_1rjnt_30ja63an
20240407_1rjnt_31ja63an
20240407_1rjnt_32ja63an

ANA1181 RJNT-RJCC JA63AN B737-881

河原はこの辺で、ちょっと桜の名所を巡ってきます。

RJNT 070500Z 01008KT 330V050 9999 FEW020 22/09 Q1016

20240407_2higashiyatsuo_50jr1027d

久しぶりに鉄

20240407_2higashiyatsuo_51jr1027d

1027D D101

 

| | コメント (0)

2024/04/06

定点 富山空港他 2024/4/6 sat

世の中、入学式や入社式も終わって、心新たに新年度の始まりです。

RJNT 060000Z 33003KT 290V360 9999 FEW030 BKN/// 12/06 Q1021

20240406_0iwase_00dongyu

まずは難破船 手前でビーチバレーの準備をしています。

RJNT 060100Z 34004KT 310V020 9999 FEW030 BKN/// 14/06 Q1021

20240406_rjnt_01ja76an

河原に出向いて、ハクモクレンは今が盛り。

20240406_rjnt_02ja76an

ANA315 RJTT-RJNT JA76AN B737-881

20240406_rjnt_03n708gt

GTI8067 LIMC-RJAA N708GT B777-F

20240406_rjnt_04n708gt

大陸から成田に向かう飛行機雲が流れず、いく筋も

RJNT 060200Z 34005KT 290V020 9999 FEW020 BKN/// 15/07 Q1020

20240406_rjnt_05b223r

HLF8827 ZSYT-RJAA B-223R B737-86NBCF

赤いエンジンカウルがかわいいセントラル

20240406_rjnt_06ja201m

JA201M PA-28RT-201T

20240406_rjnt_07ja93nh

あらら、進入滑走路を間違えてダウンウインド。訂正するので、捻りが見れました。

20240406_rjnt_08ja93nh

JA93NH AW139 ANH

20240406_rjnt_09ja93nh

赤木蓮は、これから開花

20240406_rjnt_10ja76an

ANA316 RJNT-RJTT JA76AN B737-881

20240406_rjnt_11ja76an

RJNT 060300Z 32004KT 280V360 9999 FEW020 BKN/// 17/07 Q1019

20240406_rjnt_12ja66an
20240406_rjnt_13ja66an

ANA1182 RJCC-RJNT JA66AN B737-881

20240406_rjnt_14ja66an
20240406_rjnt_15ja173b

JA173B BK117C-2 THK 富山県ドクターヘリ

20240406_rjnt_16ja93nh

JA93NH↑ 給油して名古屋にお帰り

20240406_rjnt_17ja173b

JA173B こちらも帰還

20240406_rjnt_18b5260
20240406_rjnt_19b5260

CSH825 ZSPD-RJNT B-5260 B737-76D

20240406_rjnt_20b5260
20240406_rjnt_21ja201m

JA201M↑ 脚の引っ込む飛行機はカッコイイ

20240406_rjnt_22ja201m

またいらっしー

RJNT 060400Z 36006KT 320V030 9999 FEW020 BKN/// 19/08 Q1018

20240406_rjnt_23ja66an
20240406_rjnt_24ja66an
20240406_rjnt_25ja66an

ANA1181 RJNT-RJCC JA66AN B737-881

20240406_rjnt_26ja66an

脚の引っ込む飛行機はカッコイイ

20240406_rjnt_27ja979a

広島からやって来たみたい。到着は場所が遠くて撮影できず。

20240406_rjnt_28ja979a

JA979A AW139 JCG 「せとわし」第六管区海上保安本部

20240406_rjnt_29ja979a

IFRで仙台へ TOEのラジアルをアラインします。この後脚上。

20240406_rjnt_30ja119w

今日も新人さん訓練

20240406_rjnt_31ja119w

JA119W↑ AW139 富山県消防防災

20240406_rjnt_32ja119w

脚の引っ込む飛行機はカッコイイ

RJNT 060500Z 01008KT 340V050 9999 FEW020 BKN/// 17/08 Q1018

20240406_rjnt_33b5260

今日は、ほぼ定刻

20240406_rjnt_34b5260
20240406_rjnt_35b5260
20240406_rjnt_36b5260

CSH826 RJNT-ZSPD B-5260 B737-76D

20240406_rjnt_37ja3818

JA3818↓ C206 KCK

20240406_rjnt_38ja119w

JA119W↓ 帰還まで待ってみました。

20240406_rjnt_39ja119w

お疲れさまでした。

| | コメント (0)

2024/04/02

定点 富山空港 2024/4/2 tue

新年度に入りました。今年は入社式も新型コロナ前の規模に戻って、株価も高値を付けて景気が良いはずなのですが、気持ちはイマイチ。

RJNT 020100Z 36006KT 9999 FEW100 BKN120 BKN/// 11/01 Q1018

20240402_rjnt_00ja838n

陽射しは春ですが、寒い北風。朝から測量機がバシバシ飛んでいます。

20240402_rjnt_01ja001x

JA001X C170S 春の便りかな

RJNT 020200Z 35006KT 320V050 9999 FEW090 SCT100 BKN120 12/02 Q1019

20240402_rjnt_02ja838n

JA838N C208A NNK

20240402_rjnt_03ja79an

RNAV RWY02

20240402_rjnt_04ja79an
20240402_rjnt_05ja79an

ANA315 RJTT-RJNT JA79AN B737-881

20240402_rjnt_06ja79an

サクラはまだですが、ハクモクレンが咲きだしました。

20240402_rjnt_07ja173b

JA173B BK117C-2 THK 富山県ドクターヘリ 今日も現場へ急行

20240402_rjnt_08ja001x

JA001X↑

RJNT 020300Z 35004KT 9999 FEW090 SCT100 BKN120 11/03 Q1019

20240402_rjnt_09ja79an

シーケンスのやり繰りがあって、ランナップしてしばし待機。

20240402_rjnt_10ja83an

1182が、ダウンウインドに入りました。しかし、あの管制指示は、ちょっと乱暴かな。TCASアラートが鳴るよ。

20240402_rjnt_11ja79an
20240402_rjnt_12ja79an

ANA316 RJNT-RJTT JA79AN B737-881

20240402_rjnt_13ja173b

JA173B 春山バックに帰投

20240402_rjnt_14ja83an

これはサークリング

20240402_rjnt_15ja83an
20240402_rjnt_16ja83an

ANA1182 RJCC-RJNT JA83AN B737-881

20240402_rjnt_17ja83an

RJNT 020400Z 02003KT 330V060 9999 FEW080 SCT090 BKN100 12/03 Q1018

20240402_rjnt_18b5261

今日から上海さんの時刻が早くなりました。

20240402_rjnt_19b5261
20240402_rjnt_20b5261

CSH825 ZSPD-RJNT B-5261 B737-7D6

20240402_rjnt_21b5261

千歳便と重なるようね

20240402_rjnt_22b5261

ニィハオ

20240402_rjnt_23b5261
20240402_rjnt_24ja83an
20240402_rjnt_25ja83an
20240402_rjnt_26ja83an

ANA1181 RJNT-RJCC JA83AN B737-881

20240402_rjnt_27ja139t

JA139T↑ AW139 富山県警察 場周訓練から

20240402_rjnt_28ja30mp

山取材をしてきたのかな?

20240402_rjnt_29ja30mp

JA30MP↓ EC135T1 MSP

20240402_rjnt_30ja139t

P/G 1回のみで、県内フライトへ

20240402_rjnt_31ja6512

JA6512↓ AS350B3 AKF

20240402_rjnt_32ja01ad

ようやく撤収の模様

20240402_rjnt_33ja01ad

JA01AD C208B HRT

20240402_rjnt_34ja119w

JA119W↑ AW139 富山県消防防災

新年度、隊長さん他が交代して、初めての訓練

せっかく時刻が早くなった上海さんでしたが、EDCTがかかって、結局16時半の出発となった。乗務員の方は、大変やね。

| | コメント (0)

2024/03/31

定点 富山空港 2024/3/31 sun

年度末が日曜で、朝から黄砂で空が白い。

RJNT 310200Z VRB02KT 9999 FEW010 SCT020 BKN050 14/09 Q1012

20240331_rjnt_00ja142a
20240331_rjnt_01ja142a

ANA315 RJTT-RJNT JA142A A321-272N

RJNT 310300Z 04004KT 310V090 9999 FEW010 SCT020 BKN070 16/09 Q1012

20240331_rjnt_02ja142a
20240331_rjnt_03ja142a
20240331_rjnt_04ja142a

ANA316 RJNT-RJTT JA142A A321-272N

20240331_rjnt_05ja01yp

JA01YP↓ AS365N3 YSP

20240331_rjnt_06ja62an

ファイナルまで来て、急遽サークリングに変更

20240331_rjnt_07ja62an

綺麗にアラインしています。

20240331_rjnt_08ja62an
20240331_rjnt_09ja62an

ANA1182 RJCC-RJNT JA62AN B737-881

RJNT 310400Z 36008KT 9999 FEW010 SCT030 BKN050 15/08 Q1012

20240331_rjnt_10ja62an
20240331_rjnt_11ja62an

ANA1182 RJCC-RJNT JA62AN B737-881

20240331_rjnt_12ja01yp

JA01YP ちょっとデッキで確認

20240331_rjnt_13ja01yp

測量機が2機、南を向いて駐機中 01AD ずっといるよね。

20240331_rjnt_14ja838n

JA838N C208A NNK

この後、能登へ測量に飛び立ちました。

20240331_rjnt_15ja01ad

JA01AD C208B  HRT

 

| | コメント (0)

より以前の記事一覧

その他のカテゴリー

BI Boading record aircraft Boading record ship FlightTracking lighthouse NAVAIDS NAVY RJNT LOG SKY MASSAGE US NAVY USMC うみ おか そら てつ アクシデント エアロック チーム室屋 ヘリポート 三沢飛行場 上五島空港 下地島空港 下総飛行場 与論空港 与那国空港 中標津空港 中部国際空港 久米島空港 五島福江空港 仙台空港 伊江島空港 但馬空港 佐賀空港 入間飛行場 八尾空港 八戸飛行場 出雲空港 函館空港 利尻空港 北九州空港 北大東空港 十勝飛行場 千歳飛行場 南大東空港 博物館 厚木飛行場 名古屋飛行場 喜界空港 嘉手納飛行場 場外 壱岐空港 多良間空港 大分空港 大村飛行場 大湊飛行場 大阪国際空港 大館能代空港 天草空港 奄美空港 奥尻空港 宇部山口空港 宇都宮飛行場 宮古空港 宮崎空港 富山空港 対馬空港 小松島飛行場 小松飛行場 屋久島空港 山形空港 岐阜飛行場 岡南飛行場 岡山空港 岩国飛行場 帯広空港 広島空港 広島西飛行場 庄内空港 徳之島空港 徳島飛行場 慶良間空港 成田国際空港 新島空港 新潟空港 新田原飛行場 旭川空港 旭川飛行場 明野飛行場 普天間飛行場 木更津飛行場 札幌飛行場 東京国際空港 松山空港 松島飛行場 松本空港 枕崎飛行場 横田飛行場 沖永良部空港 波照間空港 浜松飛行場 海上保安庁 海上自衛隊 海外 熊本空港 百里飛行場 相馬原飛行場 石垣空港 石見空港 礼文空港 神戸空港 神津島空港 福井空港 福岡空港 福島空港 秋田空港 稚内空港 種子島空港 空撮 立川飛行場 竜ヶ崎飛行場 築城飛行場 粟国空港 美保飛行場 能登空港 舞鶴飛行場 航空自衛隊 芦屋飛行場 花巻空港 調布飛行場 警務消防 那覇空港 釧路空港 長崎空港 関西国際空港 陸上自衛隊 隠岐空港 霞ヶ浦飛行場 霞目飛行場 青森空港 静岡空港 静浜飛行場 飛行場跡 飛行船 鹿児島空港 鹿屋飛行場